Time;durP1;ratioP1;P1;durP2;ratioP2;P2;SDS_P1;SDS_P2;PMS_P1;PMS_P2;Temp;Humidity;BMP_temperature;BMP_pressure;BME280_temperature;BME280_humidity;BME280_pressure;Samples;Min_cycle;Max_cycle;Signal;HPM_P1;HPM_P2
2023/01/24 00:00:19;;;;;;;26.70;16.30;;;;;;;1.98;96.48;103176.20;106950;1259;69804;-77
2023/01/24 00:02:46;;;;;;;27.30;15.80;;;;;;;1.97;96.36;103178.33;106679;1259;71767;-76
2023/01/24 00:05:13;;;;;;;28.80;16.60;;;;;;;1.98;96.52;103176.73;106639;1258;62055;-76
2023/01/24 00:07:40;;;;;;;28.10;16.70;;;;;;;1.99;96.08;103175.46;106766;1262;61173;-75
2023/01/24 00:10:08;;;;;;;25.00;15.70;;;;;;;1.97;96.02;103176.56;107057;1259;72173;-75
2023/01/24 00:12:35;;;;;;;28.40;16.20;;;;;;;1.95;96.20;103175.08;107053;1260;71820;-76
2023/01/24 00:15:02;;;;;;;26.80;16.00;;;;;;;1.93;95.98;103176.21;106771;1264;72708;-77
2023/01/24 00:17:29;;;;;;;25.20;15.70;;;;;;;1.91;96.19;103173.84;106856;1261;61373;-76
2023/01/24 00:19:56;;;;;;;27.50;15.60;;;;;;;1.91;96.27;103176.98;107011;1259;61159;-77
2023/01/24 00:22:23;;;;;;;27.70;16.00;;;;;;;1.91;96.48;103178.71;106856;1262;72266;-75
2023/01/24 00:24:50;;;;;;;27.10;15.70;;;;;;;1.92;96.42;103178.16;106763;1258;69754;-76
2023/01/24 00:27:17;;;;;;;25.40;15.00;;;;;;;1.94;96.28;103178.27;106963;1262;72776;-77
2023/01/24 00:29:45;;;;;;;24.50;14.90;;;;;;;1.95;95.81;103180.84;106752;1259;60566;-76
2023/01/24 00:32:12;;;;;;;24.70;15.00;;;;;;;1.95;96.04;103178.39;107078;1259;61419;-76
2023/01/24 00:34:39;;;;;;;27.60;15.70;;;;;;;1.93;95.68;103177.27;106930;1259;74548;-76
2023/01/24 00:37:06;;;;;;;25.50;15.20;;;;;;;1.92;96.19;103172.77;107052;1262;70943;-76
2023/01/24 00:39:33;;;;;;;26.00;14.90;;;;;;;1.93;95.83;103169.79;106884;1262;72403;-75
2023/01/24 00:42:00;;;;;;;26.40;15.80;;;;;;;1.93;95.86;103165.59;106949;1257;61253;-76
2023/01/24 00:44:28;;;;;;;25.30;15.00;;;;;;;1.94;96.15;103164.50;106961;1259;61608;-76
2023/01/24 00:46:55;;;;;;;25.20;15.20;;;;;;;1.94;96.10;103164.48;107037;1261;73155;-76
2023/01/24 00:49:22;;;;;;;23.80;14.70;;;;;;;1.96;95.92;103162.34;106991;1263;70687;-77
2023/01/24 00:51:49;;;;;;;22.40;14.10;;;;;;;1.95;95.68;103162.17;106759;1259;72890;-77
2023/01/24 00:54:16;;;;;;;21.50;13.50;;;;;;;1.94;95.24;103158.21;107102;1261;61138;-77
2023/01/24 00:56:43;;;;;;;22.70;13.70;;;;;;;1.92;95.46;103159.49;106720;1259;62034;-76
2023/01/24 00:59:10;;;;;;;22.40;13.40;;;;;;;1.91;95.34;103162.33;106765;1258;74360;-77
2023/01/24 01:01:37;;;;;;;20.30;13.50;;;;;;;1.90;95.48;103162.54;106778;1259;71185;-77
2023/01/24 01:04:04;;;;;;;20.60;13.00;;;;;;;1.90;95.47;103161.00;107186;1259;71423;-77
2023/01/24 01:06:32;;;;;;;22.00;13.30;;;;;;;1.89;95.11;103160.50;106891;1263;61255;-77
2023/01/24 01:09:02;;;;;;;20.00;12.40;;;;;;;1.88;95.28;103163.31;106774;1259;61843;-77
2023/01/24 01:11:30;;;;;;;22.00;12.50;;;;;;;1.87;95.17;103165.63;107162;1259;72284;-76
2023/01/24 01:13:57;;;;;;;20.90;12.70;;;;;;;1.85;95.08;103166.93;106917;1259;70908;-77
2023/01/24 01:16:24;;;;;;;20.30;12.60;;;;;;;1.83;95.22;103171.68;106817;1261;72140;-76
2023/01/24 01:18:54;;;;;;;18.60;11.80;;;;;;;1.83;95.23;103168.55;106675;1259;61303;-77
2023/01/24 01:21:21;;;;;;;19.00;12.10;;;;;;;1.84;95.18;103173.24;106761;1257;59321;-76
2023/01/24 01:23:49;;;;;;;17.20;10.90;;;;;;;1.83;95.09;103168.92;106818;1260;74640;-76
2023/01/24 01:26:18;;;;;;;18.40;11.40;;;;;;;1.83;94.82;103165.27;107231;1259;71127;-76
2023/01/24 01:28:46;;;;;;;18.20;11.40;;;;;;;1.82;94.73;103169.30;107154;1259;72456;-75
2023/01/24 01:31:14;;;;;;;19.00;12.10;;;;;;;1.82;94.71;103170.34;106779;1259;61824;-75
2023/01/24 01:33:43;;;;;;;19.30;12.20;;;;;;;1.84;95.01;103168.38;106835;1262;61333;-77
2023/01/24 01:36:10;;;;;;;18.50;11.20;;;;;;;1.85;94.88;103170.95;107219;1257;74565;-77
2023/01/24 01:38:37;;;;;;;19.10;11.10;;;;;;;1.86;94.67;103170.75;106495;1264;70568;-76
2023/01/24 01:41:05;;;;;;;16.90;11.20;;;;;;;1.87;94.76;103175.41;106899;1259;71999;-77
2023/01/24 01:43:32;;;;;;;17.50;10.50;;;;;;;1.88;94.50;103174.52;106812;1258;61349;-77
2023/01/24 01:46:16;;;;;;;17.80;11.40;;;;;;;1.88;94.42;103172.91;106999;1257;61301;-77
2023/01/24 01:48:49;;;;;;;17.20;10.80;;;;;;;1.90;94.41;103174.09;107213;1257;74487;-76
2023/01/24 01:51:31;;;;;;;12.40;10.40;;;;;;;1.90;94.04;103168.84;106815;1259;70106;-77
2023/01/24 01:54:09;;;;;;;16.10;11.00;;;;;;;1.91;93.97;103167.91;106730;1259;71724;-77
2023/01/24 01:57:00;;;;;;;17.30;10.20;;;;;;;1.92;94.03;103163.17;106659;1262;62070;-77
2023/01/24 01:59:31;;;;;;;15.20;10.10;;;;;;;1.97;94.42;103167.70;106761;1260;61042;-77
2023/01/24 02:02:01;;;;;;;17.50;10.70;;;;;;;1.99;93.90;103168.46;106889;1259;73141;-77
2023/01/24 02:04:40;;;;;;;16.20;10.30;;;;;;;2.02;93.99;103165.41;107101;1263;70099;-77
2023/01/24 02:07:23;;;;;;;17.40;10.60;;;;;;;2.02;93.14;103170.14;106893;1263;72807;-76
2023/01/24 02:09:53;;;;;;;17.00;10.50;;;;;;;2.02;93.24;103173.80;106979;1261;61330;-76
2023/01/24 02:12:24;;;;;;;17.00;10.70;;;;;;;2.03;93.45;103171.48;106989;1262;61226;-77
2023/01/24 02:17:41;;;;;;;16.10;10.50;;;;;;;2.07;93.31;103172.59;106915;1261;71230;-77
2023/01/24 02:20:24;;;;;;;15.20;10.70;;;;;;;2.09;93.25;103174.03;107151;1263;73187;-76
2023/01/24 02:23:05;;;;;;;15.60;10.30;;;;;;;2.10;93.01;103174.71;106830;1259;61285;-77
2023/01/24 02:25:42;;;;;;;15.30;10.30;;;;;;;2.09;92.70;103176.16;107091;1261;61167;-77
2023/01/24 02:28:09;;;;;;;15.60;10.00;;;;;;;2.10;92.97;103178.02;106987;1259;72656;-77
2023/01/24 02:30:37;;;;;;;15.20;9.80;;;;;;;2.12;93.13;103177.95;106871;1263;69700;-77
2023/01/24 02:33:13;;;;;;;14.90;9.90;;;;;;;2.15;92.88;103174.34;107047;1262;72174;-77
2023/01/24 02:35:40;;;;;;;14.80;9.80;;;;;;;2.15;92.54;103176.98;107321;1262;61359;-76
2023/01/24 02:38:18;;;;;;;14.70;9.60;;;;;;;2.14;92.41;103173.52;106818;1259;61298;-77
2023/01/24 02:40:48;;;;;;;14.40;9.30;;;;;;;2.13;92.42;103173.39;107015;1259;76726;-78
2023/01/24 02:43:17;;;;;;;15.80;9.30;;;;;;;2.14;92.36;103172.83;106842;1258;70040;-75
2023/01/24 02:45:44;;;;;;;16.50;9.40;;;;;;;2.15;92.35;103170.17;106913;1259;71600;-78
2023/01/24 02:48:11;;;;;;;14.20;9.10;;;;;;;2.14;91.95;103168.61;106844;1259;61260;-78
2023/01/24 02:53:29;;;;;;;12.80;8.60;;;;;;;2.12;91.91;103168.20;106904;1261;74794;-76
2023/01/24 02:58:47;;;;;;;14.10;8.60;;;;;;;2.11;91.90;103172.74;106952;1259;72629;-76
2023/01/24 03:01:15;;;;;;;13.40;8.20;;;;;;;2.12;91.93;103163.83;107052;1257;61277;-77
2023/01/24 03:03:45;;;;;;;12.90;8.30;;;;;;;2.11;91.68;103159.14;106787;1260;61292;-75
2023/01/24 03:06:14;;;;;;;11.90;7.80;;;;;;;2.07;91.07;103160.17;106640;1261;75062;-78
2023/01/24 03:08:41;;;;;;;12.60;8.10;;;;;;;2.03;91.21;103159.09;106909;1260;69797;-76
2023/01/24 03:11:10;;;;;;;12.10;7.80;;;;;;;2.02;91.48;103157.38;106660;1258;71657;-76
2023/01/24 03:35:53;;;;;;;9.30;6.40;;;;;;;1.96;89.79;103154.29;106970;1260;72282;-78
2023/01/24 03:41:07;;;;;;;8.60;6.00;;;;;;;1.94;89.53;103151.06;106695;1260;61276;-77
2023/01/24 03:43:34;;;;;;;9.60;6.20;;;;;;;1.95;89.46;103154.17;106692;1260;61292;-76
2023/01/24 03:46:02;;;;;;;9.60;6.70;;;;;;;1.96;89.65;103157.08;106246;1259;726575;-76
2023/01/24 03:48:36;;;;;;;10.40;6.70;;;;;;;1.96;89.26;103153.59;106762;1259;71160;-75
2023/01/24 03:53:50;;;;;;;9.10;5.90;;;;;;;1.94;89.16;103150.69;107082;1263;61187;-76
2023/01/24 03:56:20;;;;;;;9.80;6.50;;;;;;;1.94;88.95;103151.92;107136;1259;61316;-76
2023/01/24 03:58:46;;;;;;;8.50;5.70;;;;;;;1.93;89.09;103153.19;106519;1264;73537;-76
2023/01/24 04:01:14;;;;;;;10.00;6.40;;;;;;;1.92;88.88;103155.67;106831;1258;70402;-76
2023/01/24 04:03:41;;;;;;;10.50;6.50;;;;;;;1.92;88.90;103158.46;106893;1262;73339;-77
2023/01/24 04:06:08;;;;;;;9.10;6.10;;;;;;;1.92;88.97;103156.03;106922;1262;63249;-76
2023/01/24 04:08:35;;;;;;;10.00;6.10;;;;;;;1.94;88.89;103157.69;106915;1262;60078;-78
2023/01/24 04:11:02;;;;;;;10.20;6.40;;;;;;;1.97;88.88;103161.41;106633;1263;74824;-77
2023/01/24 04:13:30;;;;;;;9.70;6.70;;;;;;;1.97;88.62;103163.52;106849;1263;71101;-78
2023/01/24 04:15:57;;;;;;;9.50;6.30;;;;;;;1.97;88.74;103165.92;106857;1257;72872;-77
2023/01/24 04:18:24;;;;;;;10.10;6.20;;;;;;;1.99;88.75;103163.06;106795;1258;61273;-75
2023/01/24 04:20:51;;;;;;;9.00;5.80;;;;;;;2.00;88.53;103167.59;106889;1261;61401;-77
2023/01/24 04:23:18;;;;;;;9.10;5.60;;;;;;;1.99;88.48;103166.92;106789;1261;76454;-78
2023/01/24 04:25:54;;;;;;;8.70;6.00;;;;;;;1.98;88.37;103166.24;107047;1260;72738;-76
2023/01/24 04:28:22;;;;;;;8.80;5.70;;;;;;;2.00;87.95;103168.13;106827;1257;71724;-77
2023/01/24 04:30:57;;;;;;;9.50;6.40;;;;;;;2.00;88.25;103164.24;106833;1261;59976;-77
2023/01/24 04:33:25;;;;;;;9.80;6.40;;;;;;;2.01;88.14;103169.27;106667;1263;61235;-78
2023/01/24 04:35:51;;;;;;;8.30;5.20;;;;;;;2.00;87.68;103164.45;107233;1259;76028;-75
2023/01/24 04:38:18;;;;;;;8.50;5.40;;;;;;;1.97;86.67;103160.02;107206;1258;69185;-76
2023/01/24 04:40:45;;;;;;;9.40;6.10;;;;;;;1.94;87.24;103156.45;106683;1261;72427;-77
2023/01/24 04:43:13;;;;;;;9.40;6.50;;;;;;;1.92;86.83;103156.89;106717;1266;61277;-77
2023/01/24 04:45:40;;;;;;;12.10;8.50;;;;;;;1.91;87.27;103158.49;106909;1263;61109;-78
2023/01/24 04:48:07;;;;;;;11.20;7.30;;;;;;;1.93;87.60;103157.38;106942;1260;74852;-77
2023/01/24 04:50:34;;;;;;;11.20;7.20;;;;;;;1.95;87.11;103159.94;107372;1257;71184;-77
2023/01/24 04:53:01;;;;;;;10.80;7.00;;;;;;;1.96;87.68;103160.58;107195;1260;71758;-77
2023/01/24 04:55:28;;;;;;;11.20;7.10;;;;;;;1.98;87.57;103160.17;106809;1261;61270;-77
2023/01/24 04:57:55;;;;;;;10.00;6.70;;;;;;;1.98;87.49;103158.21;107428;1261;61406;-77
2023/01/24 05:00:22;;;;;;;8.70;6.40;;;;;;;1.98;87.51;103161.21;106678;1261;74054;-78
2023/01/24 05:02:51;;;;;;;10.10;6.90;;;;;;;1.99;87.56;103160.63;106987;1263;70519;-77
2023/01/24 05:05:18;;;;;;;10.20;7.20;;;;;;;2.00;87.49;103163.55;106980;1259;73711;-76
2023/01/24 05:07:45;;;;;;;10.00;6.60;;;;;;;2.01;87.45;103163.54;107148;1257;61251;-77
2023/01/24 05:10:12;;;;;;;10.70;6.70;;;;;;;2.01;87.56;103165.45;107354;1261;61637;-77
2023/01/24 05:12:39;;;;;;;10.40;6.70;;;;;;;2.00;87.35;103168.80;106904;1257;74553;-76
2023/01/24 05:15:06;;;;;;;9.40;6.30;;;;;;;2.01;87.55;103165.62;108394;1260;70101;-76
2023/01/24 05:17:33;;;;;;;9.10;6.50;;;;;;;2.01;87.22;103166.48;107654;1264;71136;-77
2023/01/24 05:20:00;;;;;;;9.10;6.10;;;;;;;2.02;87.23;103170.96;107151;1257;59762;-77
2023/01/24 05:22:28;;;;;;;9.40;6.30;;;;;;;2.01;87.08;103170.48;106891;1260;61246;-77
2023/01/24 05:24:58;;;;;;;10.30;6.30;;;;;;;2.00;86.91;103166.73;107021;1259;73446;-77
2023/01/24 05:27:25;;;;;;;9.60;6.40;;;;;;;2.01;87.00;103169.81;107423;1260;70224;-77
2023/01/24 05:29:52;;;;;;;11.00;6.80;;;;;;;2.02;86.59;103165.77;107365;1260;71864;-75
2023/01/24 05:32:23;;;;;;;9.30;6.00;;;;;;;1.98;86.30;103163.81;108263;1257;63047;-78
2023/01/24 05:34:50;;;;;;;8.30;5.20;;;;;;;1.95;86.44;103164.96;108779;1260;59410;-76
2023/01/24 05:37:20;;;;;;;8.30;5.70;;;;;;;1.94;86.09;103167.30;107198;1260;75189;-77
2023/01/24 05:39:47;;;;;;;8.70;5.80;;;;;;;1.93;86.00;103170.61;106797;1257;71379;-75
2023/01/24 05:42:14;;;;;;;8.10;5.50;;;;;;;1.94;86.51;103171.11;107275;1261;70415;-75
2023/01/24 05:44:52;;;;;;;8.60;5.60;;;;;;;1.95;86.25;103178.59;106760;1260;61084;-81
2023/01/24 05:47:19;;;;;;;9.00;5.90;;;;;;;1.96;86.46;103182.05;108025;1257;59390;-74
2023/01/24 05:49:45;;;;;;;9.30;5.70;;;;;;;1.97;86.73;103183.57;106902;1260;74431;-75
2023/01/24 05:52:18;;;;;;;8.90;5.70;;;;;;;1.99;86.66;103181.40;106100;1259;71510;-75
2023/01/24 05:54:54;;;;;;;9.80;6.30;;;;;;;2.00;86.50;103183.48;106097;1264;72751;-77
2023/01/24 05:57:20;;;;;;;9.00;5.80;;;;;;;2.00;86.41;103191.15;106287;1260;61665;-74
2023/01/24 05:59:48;;;;;;;9.00;5.90;;;;;;;2.00;86.33;103193.25;106463;1257;61702;-75
2023/01/24 06:02:18;;;;;;;7.90;5.30;;;;;;;1.99;86.36;103192.40;106615;1257;74432;-74
2023/01/24 06:04:45;;;;;;;7.60;5.10;;;;;;;1.95;85.89;103190.09;106429;1260;71070;-76
2023/01/24 06:07:12;;;;;;;8.20;5.00;;;;;;;1.92;85.72;103189.18;106685;1257;71145;-74
2023/01/24 06:09:39;;;;;;;7.50;5.10;;;;;;;1.85;85.37;103196.75;106392;1257;61242;-74
2023/01/24 06:12:06;;;;;;;7.50;4.60;;;;;;;1.84;85.31;103200.80;106433;1262;61250;-74
2023/01/24 06:14:33;;;;;;;8.30;5.50;;;;;;;1.81;85.33;103195.52;106402;1261;73892;-75
2023/01/24 06:17:00;;;;;;;7.30;5.20;;;;;;;1.82;85.65;103196.73;106578;1257;70999;-75
2023/01/24 06:19:30;;;;;;;7.40;5.30;;;;;;;1.80;85.83;103197.64;106600;1257;71048;-77
2023/01/24 06:22:30;;;;;;;7.90;5.30;;;;;;;1.79;85.80;103204.81;106545;1257;61257;-76
2023/01/24 06:24:57;;;;;;;7.20;5.50;;;;;;;1.85;86.00;103207.05;106725;1257;61298;-76
2023/01/24 06:27:24;;;;;;;12.70;9.50;;;;;;;1.89;85.79;103209.88;106595;1257;74369;-76
2023/01/24 06:29:54;;;;;;;8.10;5.10;;;;;;;1.91;85.61;103210.14;106119;1262;69666;-75
2023/01/24 06:32:54;;;;;;;7.90;5.30;;;;;;;1.92;85.56;103217.43;106137;1257;72546;-76
2023/01/24 06:35:53;;;;;;;8.10;5.70;;;;;;;1.94;85.61;103223.81;106400;1257;61237;-76
2023/01/24 06:38:23;;;;;;;8.00;4.70;;;;;;;1.94;85.30;103220.67;106678;1257;61348;-75
2023/01/24 06:41:01;;;;;;;8.20;5.10;;;;;;;1.94;85.52;103219.63;106627;1257;72622;-75
2023/01/24 06:43:29;;;;;;;6.60;4.80;;;;;;;1.95;85.14;103222.73;106326;1257;69722;-78
2023/01/24 06:45:56;;;;;;;6.90;4.40;;;;;;;1.95;84.93;103225.19;106986;1258;73368;-76
2023/01/24 06:48:23;;;;;;;6.00;4.00;;;;;;;1.93;84.51;103219.86;106934;1259;62551;-74
2023/01/24 06:50:57;;;;;;;5.40;3.90;;;;;;;1.89;84.10;103222.10;106720;1260;61125;-74
2023/01/24 06:53:24;;;;;;;6.60;4.00;;;;;;;1.84;84.04;103222.80;106137;1263;73472;-74
2023/01/24 06:55:51;;;;;;;5.70;4.00;;;;;;;1.82;84.20;103224.61;107215;1262;72835;-74
2023/01/24 06:58:18;;;;;;;6.20;4.00;;;;;;;1.82;84.52;103223.55;108791;1259;70976;-74
2023/01/24 07:00:45;;;;;;;5.60;4.20;;;;;;;1.81;84.52;103225.51;108836;1257;60970;-74
2023/01/24 07:03:12;;;;;;;5.50;3.80;;;;;;;1.78;84.13;103225.48;108774;1257;59446;-75
2023/01/24 07:05:39;;;;;;;5.90;4.20;;;;;;;1.72;84.00;103228.11;108649;1257;73798;-73
2023/01/24 07:08:06;;;;;;;5.90;4.20;;;;;;;1.70;84.33;103229.05;107864;1257;71297;-73
2023/01/24 07:10:34;;;;;;;6.50;4.60;;;;;;;1.70;84.59;103235.85;107672;1259;72433;-74
2023/01/24 07:13:00;;;;;;;5.70;4.50;;;;;;;1.71;84.79;103233.76;106316;1258;61283;-75
2023/01/24 07:15:27;;;;;;;5.70;4.50;;;;;;;1.74;85.17;103243.92;106726;1261;61257;-74
2023/01/24 07:17:54;;;;;;;7.40;5.30;;;;;;;1.76;85.03;103243.85;106417;1257;73198;-76
2023/01/24 07:20:30;;;;;;;8.10;5.10;;;;;;;1.79;84.95;103250.88;106392;1257;71029;-74
2023/01/24 07:22:57;;;;;;;6.50;4.70;;;;;;;1.82;84.98;103247.66;106170;1257;71700;-75
2023/01/24 07:25:26;;;;;;;7.10;4.70;;;;;;;1.81;84.89;103246.98;106174;1262;61342;-72
2023/01/24 07:27:55;;;;;;;7.10;4.90;;;;;;;1.79;84.65;103245.49;106528;1257;61901;-74
2023/01/24 07:30:22;;;;;;;5.50;4.10;;;;;;;1.75;84.55;103246.67;106053;1258;73145;-73
2023/01/24 07:32:49;;;;;;;6.60;4.40;;;;;;;1.72;84.37;103251.86;106198;1263;69902;-74
2023/01/24 07:35:16;;;;;;;5.40;4.20;;;;;;;1.70;84.57;103256.98;106415;1257;71511;-77
2023/01/24 07:37:43;;;;;;;5.80;4.20;;;;;;;1.68;84.77;103255.14;106394;1257;60178;-74
2023/01/24 07:40:11;;;;;;;5.90;4.40;;;;;;;1.66;84.81;103263.38;106304;1257;61167;-75
2023/01/24 07:42:38;;;;;;;5.20;3.80;;;;;;;1.63;85.04;103264.52;106221;1257;73567;-75
2023/01/24 07:45:06;;;;;;;5.10;3.20;;;;;;;1.60;84.69;103262.70;106298;1257;70931;-74
2023/01/24 07:47:33;;;;;;;8.30;4.90;;;;;;;1.56;84.24;103262.17;106270;1257;72466;-74
2023/01/24 07:49:59;;;;;;;8.70;4.70;;;;;;;1.53;84.14;103265.05;106290;1261;61266;-73
2023/01/24 07:52:26;;;;;;;5.90;4.00;;;;;;;1.52;84.66;103269.27;106385;1257;61189;-73
2023/01/24 07:54:53;;;;;;;5.30;3.40;;;;;;;1.55;84.78;103268.30;106235;1257;73185;-74
2023/01/24 07:57:21;;;;;;;5.40;3.60;;;;;;;1.57;84.89;103268.06;106227;1257;69650;-75
2023/01/24 07:59:48;;;;;;;5.30;3.40;;;;;;;1.57;84.82;103271.38;106356;1257;73111;-74
2023/01/24 08:02:15;;;;;;;5.00;3.40;;;;;;;1.58;84.61;103273.98;106160;1260;61865;-76
2023/01/24 08:04:43;;;;;;;5.70;3.80;;;;;;;1.56;84.40;103272.09;106187;1262;61348;-75
2023/01/24 08:07:20;;;;;;;5.50;3.80;;;;;;;1.57;84.72;103271.72;106389;1263;73445;-75
2023/01/24 08:09:48;;;;;;;5.40;3.90;;;;;;;1.59;84.78;103272.67;106467;1257;72682;-75
2023/01/24 08:12:19;;;;;;;6.20;3.70;;;;;;;1.61;84.61;103274.52;106412;1259;72732;-76
2023/01/24 08:14:46;;;;;;;5.10;3.70;;;;;;;1.59;84.63;103276.89;105989;1257;61357;-76
2023/01/24 08:17:13;;;;;;;5.10;3.60;;;;;;;1.56;84.66;103275.61;106187;1257;61336;-77
2023/01/24 08:19:40;;;;;;;6.20;4.20;;;;;;;1.56;84.60;103280.13;106645;1257;74279;-76
2023/01/24 08:22:23;;;;;;;5.70;4.00;;;;;;;1.56;84.64;103279.41;106342;1257;71083;-75
2023/01/24 08:24:53;;;;;;;5.20;3.90;;;;;;;1.56;84.47;103285.00;106275;1260;72619;-76
2023/01/24 08:27:19;;;;;;;5.30;3.70;;;;;;;1.57;84.32;103286.71;106438;1258;61304;-74
2023/01/24 08:29:46;;;;;;;7.30;4.30;;;;;;;1.59;84.69;103287.36;106483;1257;61217;-75
2023/01/24 08:32:14;;;;;;;5.40;3.90;;;;;;;1.61;84.70;103289.17;108113;1257;73524;-75
2023/01/24 08:34:41;;;;;;;5.40;4.10;;;;;;;1.64;84.75;103297.11;108831;1257;70283;-73
2023/01/24 08:37:08;;;;;;;5.60;4.00;;;;;;;1.66;84.19;103298.98;108721;1257;71310;-72
2023/01/24 08:39:35;;;;;;;5.80;4.10;;;;;;;1.67;84.32;103294.92;106591;1258;59848;-74
2023/01/24 08:42:02;;;;;;;6.00;4.00;;;;;;;1.72;84.64;103293.54;107663;1257;61103;-72
2023/01/24 08:44:28;;;;;;;4.70;3.70;;;;;;;1.75;84.22;103291.70;106463;1257;74731;-73
2023/01/24 08:46:55;;;;;;;7.30;4.10;;;;;;;1.78;84.16;103293.48;106428;1257;70012;-74
2023/01/24 08:49:22;;;;;;;5.90;4.20;;;;;;;1.83;84.44;103295.25;107098;1257;71197;-74
2023/01/24 08:51:52;;;;;;;6.10;4.30;;;;;;;1.85;83.80;103295.02;106124;1260;61228;-73
2023/01/24 08:54:19;;;;;;;5.50;4.10;;;;;;;1.85;83.75;103295.17;106152;1258;62764;-75
2023/01/24 08:56:46;;;;;;;5.40;4.00;;;;;;;1.83;83.57;103296.46;106188;1257;73803;-73
2023/01/24 08:59:12;;;;;;;5.80;3.80;;;;;;;1.81;83.46;103298.98;106508;1257;69929;-73
2023/01/24 09:01:40;;;;;;;5.10;4.00;;;;;;;1.82;83.69;103301.04;106220;1259;72092;-74
2023/01/24 09:04:10;;;;;;;5.40;4.00;;;;;;;1.82;83.89;103296.86;106117;1263;61373;-75
2023/01/24 09:06:37;;;;;;;6.20;4.40;;;;;;;1.83;83.51;103301.00;106290;1259;61255;-73
2023/01/24 09:09:04;;;;;;;5.50;3.50;;;;;;;1.84;83.43;103302.20;106004;1257;75554;-73
2023/01/24 09:11:31;;;;;;;6.70;3.90;;;;;;;1.83;83.45;103305.17;106418;1259;70943;-74
2023/01/24 09:13:58;;;;;;;4.90;3.80;;;;;;;1.85;83.18;103306.16;106156;1257;72388;-75
2023/01/24 09:16:27;;;;;;;4.70;3.50;;;;;;;1.86;83.58;103305.09;106190;1263;61245;-75
2023/01/24 09:18:54;;;;;;;5.20;3.70;;;;;;;1.89;83.34;103305.53;106097;1263;61251;-76
2023/01/24 09:21:22;;;;;;;5.40;4.10;;;;;;;1.91;83.15;103303.17;106399;1257;73464;-73
2023/01/24 09:23:49;;;;;;;5.60;4.30;;;;;;;1.94;82.99;103297.98;106570;1259;72188;-75
2023/01/24 09:26:16;;;;;;;4.60;3.80;;;;;;;1.98;83.18;103297.34;106114;1263;72773;-74
2023/01/24 09:28:43;;;;;;;5.40;3.40;;;;;;;2.00;83.13;103300.20;106238;1257;61366;-73
2023/01/24 09:31:12;;;;;;;6.10;4.00;;;;;;;2.04;83.09;103304.80;106472;1257;61126;-75
2023/01/24 09:33:39;;;;;;;6.60;4.10;;;;;;;2.10;83.07;103305.27;106333;1257;73149;-75
2023/01/24 09:36:16;;;;;;;5.80;4.10;;;;;;;2.13;82.41;103308.84;106072;1257;69914;-75
2023/01/24 09:38:43;;;;;;;6.00;4.50;;;;;;;2.16;82.59;103313.79;106132;1257;71483;-74
2023/01/24 09:41:51;;;;;;;6.30;4.30;;;;;;;2.21;82.66;103311.16;106645;1258;61469;-77
2023/01/24 09:44:44;;;;;;;6.00;4.40;;;;;;;2.27;82.49;103313.04;106439;1257;61244;-75
2023/01/24 09:47:21;;;;;;;4.90;4.00;;;;;;;2.29;82.36;103314.05;106018;1262;73368;-74
2023/01/24 09:49:55;;;;;;;6.10;4.40;;;;;;;2.26;82.00;103314.14;106157;1262;69660;-74
2023/01/24 09:52:45;;;;;;;5.80;4.50;;;;;;;2.27;82.20;103314.80;106369;1262;71473;-74
2023/01/24 09:55:36;;;;;;;5.10;4.10;;;;;;;2.32;82.26;103318.78;106310;1257;61806;-74
2023/01/24 09:58:31;;;;;;;6.30;4.50;;;;;;;2.37;82.46;103317.90;106664;1257;61185;-75
2023/01/24 10:01:08;;;;;;;5.80;4.50;;;;;;;2.44;82.34;103313.98;106457;1257;73578;-73
2023/01/24 10:03:37;;;;;;;5.30;4.30;;;;;;;2.49;81.82;103312.59;106125;1257;71278;-74
2023/01/24 10:06:19;;;;;;;5.40;3.80;;;;;;;2.51;81.44;103310.57;106162;1257;71162;-76
2023/01/24 10:09:09;;;;;;;5.60;4.00;;;;;;;2.54;81.01;103309.41;106558;1258;61353;-73
2023/01/24 10:12:01;;;;;;;5.00;3.40;;;;;;;2.61;81.06;103309.52;106141;1257;62060;-75
2023/01/24 10:14:34;;;;;;;5.60;4.10;;;;;;;2.67;81.07;103307.53;106538;1257;73594;-73
2023/01/24 10:17:21;;;;;;;5.70;3.70;;;;;;;2.73;80.76;103309.06;106570;1257;69676;-75
2023/01/24 10:20:07;;;;;;;5.40;4.00;;;;;;;2.76;80.26;103306.14;106454;1259;72503;-73
2023/01/24 10:22:54;;;;;;;5.00;3.70;;;;;;;2.78;80.12;103300.45;106125;1257;61747;-76
2023/01/24 10:25:32;;;;;;;4.90;3.50;;;;;;;2.79;79.41;103298.13;106468;1258;61042;-74
2023/01/24 10:28:01;;;;;;;4.50;3.60;;;;;;;2.80;79.45;103297.40;106124;1259;74730;-76
2023/01/24 10:30:40;;;;;;;6.20;3.60;;;;;;;2.84;79.60;103303.88;106236;1262;70014;-75
2023/01/24 10:33:16;;;;;;;6.30;3.40;;;;;;;2.86;78.88;103301.38;106516;1257;72791;-73
2023/01/24 10:36:13;;;;;;;5.50;3.50;;;;;;;2.88;78.95;103299.89;106257;1263;62002;-76
2023/01/24 10:38:42;;;;;;;4.90;3.80;;;;;;;2.92;78.82;103295.19;106193;1260;61372;-75
2023/01/24 10:41:20;;;;;;;6.70;4.40;;;;;;;2.98;78.82;103290.77;106248;1258;74442;-75
2023/01/24 10:43:54;;;;;;;4.90;3.80;;;;;;;3.04;78.53;103290.50;106166;1261;69706;-76
2023/01/24 10:46:47;;;;;;;5.50;4.20;;;;;;;3.09;78.41;103289.45;106265;1260;71657;-74
2023/01/24 10:49:29;;;;;;;6.10;4.70;;;;;;;3.17;78.30;103287.04;106245;1262;61251;-77
2023/01/24 10:52:17;;;;;;;7.50;4.60;;;;;;;3.27;78.32;103282.42;106400;1257;61841;-74
2023/01/24 10:54:56;;;;;;;6.70;4.60;;;;;;;3.35;78.11;103281.55;106174;1257;74072;-76
2023/01/24 10:57:37;;;;;;;6.80;4.90;;;;;;;3.38;77.81;103282.64;106295;1257;71599;-73
2023/01/24 11:00:40;;;;;;;7.30;4.70;;;;;;;3.44;77.62;103285.17;106151;1257;70974;-75
2023/01/24 11:03:23;;;;;;;7.70;4.80;;;;;;;3.49;77.32;103275.19;106214;1257;61263;-75
2023/01/24 11:05:53;;;;;;;5.40;3.90;;;;;;;3.50;76.19;103273.76;106039;1257;61218;-74
2023/01/24 11:08:22;;;;;;;6.40;4.20;;;;;;;3.52;75.91;103274.37;106804;1257;72583;-74
2023/01/24 11:10:55;;;;;;;5.80;4.50;;;;;;;3.54;76.09;103271.51;106213;1257;71327;-74
2023/01/24 11:13:28;;;;;;;5.50;4.00;;;;;;;3.57;75.97;103270.47;106220;1262;71208;-75
2023/01/24 11:16:01;;;;;;;5.60;4.10;;;;;;;3.59;75.58;103271.45;106325;1257;62699;-72
2023/01/24 11:18:29;;;;;;;5.70;4.10;;;;;;;3.62;75.56;103273.77;106207;1257;61163;-74
2023/01/24 11:21:08;;;;;;;5.40;3.80;;;;;;;3.63;75.09;103272.14;106249;1258;73498;-73
2023/01/24 11:23:35;;;;;;;5.00;3.60;;;;;;;3.60;74.76;103271.93;106419;1257;72585;-73
2023/01/24 11:26:05;;;;;;;5.00;3.60;;;;;;;3.57;74.65;103270.12;106249;1259;71217;-74
2023/01/24 11:28:37;;;;;;;5.60;3.30;;;;;;;3.55;74.74;103270.20;106421;1257;61106;-74
2023/01/24 11:31:15;;;;;;;5.80;3.80;;;;;;;3.56;75.26;103265.10;106349;1258;61131;-75
2023/01/24 11:34:25;;;;;;;4.70;3.70;;;;;;;3.61;75.50;103270.13;106506;1257;72490;-73
2023/01/24 11:36:57;;;;;;;5.90;3.90;;;;;;;3.64;75.33;103273.68;105997;1264;70959;-77
2023/01/24 11:39:48;;;;;;;4.90;3.40;;;;;;;3.65;75.22;103272.56;106252;1257;71323;-76
2023/01/24 11:42:51;;;;;;;5.70;3.90;;;;;;;3.66;75.53;103273.57;106359;1257;61353;-75
2023/01/24 11:45:36;;;;;;;4.70;3.60;;;;;;;3.68;75.07;103270.69;106444;1259;61184;-75
2023/01/24 11:48:21;;;;;;;5.10;3.90;;;;;;;3.65;74.69;103264.89;106395;1257;74571;-75
2023/01/24 11:51:09;;;;;;;5.10;3.30;;;;;;;3.61;74.78;103260.86;106748;1257;70284;-75
2023/01/24 11:54:00;;;;;;;5.80;3.20;;;;;;;3.55;74.46;103257.09;108582;1257;70230;-76
2023/01/24 11:56:53;;;;;;;4.20;3.20;;;;;;;3.53;74.79;103251.77;108862;1257;59662;-76
2023/01/24 11:59:26;;;;;;;4.10;3.40;;;;;;;3.53;74.93;103247.90;106088;1257;61230;-78
2023/01/24 12:02:02;;;;;;;4.40;3.50;;;;;;;3.50;74.41;103245.93;106099;1257;74136;-76
2023/01/24 12:04:59;;;;;;;5.40;4.00;;;;;;;3.44;74.87;103243.73;106259;1257;71062;-75
2023/01/24 12:07:55;;;;;;;7.40;4.80;;;;;;;3.42;75.43;103243.81;106266;1257;71666;-76
2023/01/24 12:10:51;;;;;;;6.40;4.80;;;;;;;3.41;75.47;103240.89;105644;1265;61237;-75
2023/01/24 12:14:06;;;;;;;7.40;5.20;;;;;;;3.37;75.72;103233.89;105993;1259;61310;-77
2023/01/24 12:17:02;;;;;;;6.40;4.70;;;;;;;3.32;75.63;103225.02;106237;1257;73656;-74
2023/01/24 12:20:13;;;;;;;6.70;4.70;;;;;;;3.30;76.14;103218.98;106026;1258;71193;-77